Time;durP1;ratioP1;P1;durP2;ratioP2;P2;SDS_P1;SDS_P2;PMS_P1;PMS_P2;Temp;Humidity;BMP_temperature;BMP_pressure;BME280_temperature;BME280_humidity;BME280_pressure;Samples;Min_cycle;Max_cycle;Signal;HPM_P1;HPM_P2
2023/08/28 00:00:27;;;;;;;113.27;3.13;;;20.00;51.00;;;;;;5034231;28;20587;-71
2023/08/28 00:02:54;;;;;;;113.70;3.50;;;19.90;50.90;;;;;;5034357;28;20529;-70
2023/08/28 00:05:19;;;;;;;113.17;3.10;;;20.30;51.30;;;;;;5033871;28;20414;-71
2023/08/28 00:07:45;;;;;;;113.37;3.27;;;19.90;51.20;;;;;;5034354;28;20431;-71
2023/08/28 00:10:10;;;;;;;113.10;3.00;;;20.00;51.70;;;;;;5033985;28;20209;-71
2023/08/28 00:12:40;;;;;;;112.90;2.90;;;19.80;51.40;;;;;;5034257;28;20177;-70
2023/08/28 00:15:07;;;;;;;113.47;3.47;;;19.80;51.50;;;;;;5033663;28;20170;-71
2023/08/28 00:17:33;;;;;;;113.40;3.23;;;19.90;50.50;;;;;;5034055;28;20428;-71
2023/08/28 00:19:58;;;;;;;113.77;3.60;;;19.80;50.40;;;;;;5033845;28;20487;-71
2023/08/28 00:22:24;;;;;;;113.77;3.50;;;19.90;49.90;;;;;;5022177;28;20216;-71
2023/08/28 00:24:49;;;;;;;113.20;3.17;;;19.90;49.20;;;;;;5033506;28;20252;-71
2023/08/28 00:27:15;;;;;;;117.53;3.67;;;19.90;50.00;;;;;;5033743;28;20204;-71
2023/08/28 00:29:41;;;;;;;113.77;3.43;;;19.90;49.80;;;;;;5016065;28;20797;-71
2023/08/28 00:32:07;;;;;;;113.40;3.13;;;19.90;49.70;;;;;;5033720;28;20790;-70
2023/08/28 00:34:32;;;;;;;113.20;3.03;;;20.00;50.00;;;;;;5033548;28;20196;-71
2023/08/28 00:36:58;;;;;;;113.40;3.20;;;19.90;50.00;;;;;;5032880;28;20192;-71
2023/08/28 00:39:23;;;;;;;113.67;3.57;;;19.90;49.30;;;;;;5033637;28;20635;-71
2023/08/28 00:41:49;;;;;;;113.43;3.10;;;19.90;50.20;;;;;;5033612;28;20222;-71
2023/08/28 00:44:14;;;;;;;113.50;3.30;;;20.00;50.90;;;;;;5033360;28;20171;-71
2023/08/28 00:46:40;;;;;;;113.07;3.00;;;19.90;50.30;;;;;;5033242;28;20228;-71
2023/08/28 00:49:06;;;;;;;113.87;3.77;;;19.90;50.20;;;;;;5033863;28;20175;-71
2023/08/28 00:51:32;;;;;;;113.13;3.00;;;19.80;51.30;;;;;;5033400;28;20446;-71
2023/08/28 00:53:58;;;;;;;113.97;3.60;;;19.80;51.30;;;;;;5033460;28;20403;-71
2023/08/28 00:56:24;;;;;;;113.30;3.20;;;19.90;51.40;;;;;;5015360;28;20200;-71
2023/08/28 00:58:49;;;;;;;113.53;3.43;;;19.90;51.30;;;;;;5033390;28;20173;-71
2023/08/28 01:01:15;;;;;;;113.27;3.13;;;19.70;51.20;;;;;;5033145;28;20415;-71
2023/08/28 01:03:40;;;;;;;113.47;3.33;;;19.70;51.20;;;;;;5033563;28;20209;-71
2023/08/28 01:06:35;;;;;;;113.57;3.30;;;19.70;51.50;;;;;;5032963;28;20200;-70
2023/08/28 01:09:00;;;;;;;113.77;3.70;;;19.90;49.40;;;;;;5033479;28;20184;-70
2023/08/28 01:11:46;;;;;;;113.70;3.40;;;19.80;50.40;;;;;;5032974;28;20403;-70
2023/08/28 01:14:25;;;;;;;120.23;4.30;;;19.80;51.90;;;;;;5032930;28;20312;-70
2023/08/28 01:16:53;;;;;;;113.73;3.40;;;20.00;49.70;;;;;;5030056;28;20451;-71
2023/08/28 01:19:31;;;;;;;113.57;3.40;;;20.10;49.00;;;;;;5032583;28;20415;-71
2023/08/28 01:22:22;;;;;;;114.17;3.80;;;20.10;50.00;;;;;;5012957;28;20754;-71
2023/08/28 01:24:53;;;;;;;113.57;3.50;;;20.00;50.00;;;;;;4946493;28;20813;-71
2023/08/28 01:27:21;;;;;;;113.37;3.27;;;19.80;51.30;;;;;;5012891;28;20923;-71
2023/08/28 01:30:08;;;;;;;113.23;3.07;;;19.70;51.70;;;;;;5013040;28;20417;-71
2023/08/28 01:32:34;;;;;;;113.30;3.10;;;21.90;51.70;;;;;;5030877;28;20415;-71
2023/08/28 01:35:02;;;;;;;113.60;3.40;;;20.10;50.40;;;;;;5032391;28;20503;-71
2023/08/28 01:37:34;;;;;;;113.57;3.37;;;19.90;50.10;;;;;;5032488;28;20197;-71
2023/08/28 01:40:05;;;;;;;113.57;3.33;;;19.80;50.50;;;;;;5032561;28;20687;-71
2023/08/28 01:42:32;;;;;;;113.87;3.67;;;19.80;50.80;;;;;;5032379;28;20814;-71
2023/08/28 01:44:59;;;;;;;113.57;3.47;;;19.90;50.80;;;;;;5014532;28;20420;-71
2023/08/28 01:47:25;;;;;;;113.50;3.33;;;20.00;50.10;;;;;;5031399;28;20443;-70
2023/08/28 01:49:53;;;;;;;113.60;3.40;;;19.90;51.30;;;;;;5031816;28;20409;-70
2023/08/28 01:52:19;;;;;;;113.13;3.30;;;19.80;52.00;;;;;;5032462;28;20810;-71
2023/08/28 01:54:45;;;;;;;113.33;3.07;;;19.80;51.70;;;;;;5032148;28;20409;-71
2023/08/28 01:57:11;;;;;;;113.50;3.47;;;19.80;51.40;;;;;;5031803;28;20436;-71
2023/08/28 01:59:36;;;;;;;114.00;3.90;;;19.80;50.90;;;;;;5032291;28;20418;-71
2023/08/28 02:02:02;;;;;;;113.67;3.47;;;19.80;51.10;;;;;;5031898;28;20183;-71
2023/08/28 02:04:28;;;;;;;113.07;3.00;;;19.80;51.30;;;;;;5031953;28;20176;-71
2023/08/28 02:06:53;;;;;;;113.13;3.20;;;19.70;51.00;;;;;;5031822;28;20514;-71
2023/08/28 02:09:19;;;;;;;113.57;3.53;;;19.70;50.60;;;;;;5031986;28;20169;-70
2023/08/28 02:11:45;;;;;;;113.77;3.50;;;19.80;51.00;;;;;;5028410;28;20185;-71
2023/08/28 02:14:10;;;;;;;113.80;3.30;;;19.80;51.30;;;;;;5022505;28;20181;-70
2023/08/28 02:16:39;;;;;;;113.43;3.30;;;19.70;50.80;;;;;;5026898;28;20538;-71
2023/08/28 02:19:05;;;;;;;113.20;3.17;;;19.60;51.20;;;;;;5031655;28;20204;-70
2023/08/28 02:21:31;;;;;;;113.27;3.07;;;19.90;50.20;;;;;;5031776;28;20571;-71
2023/08/28 02:23:56;;;;;;;113.47;3.43;;;19.90;50.20;;;;;;5031667;28;20200;-71
2023/08/28 02:26:22;;;;;;;113.27;3.20;;;19.90;49.70;;;;;;5031207;28;20234;-71
2023/08/28 02:28:47;;;;;;;113.40;3.23;;;19.80;50.20;;;;;;5031689;28;20724;-70
2023/08/28 02:31:13;;;;;;;113.70;3.37;;;19.70;50.40;;;;;;5031523;28;20174;-71
2023/08/28 02:33:39;;;;;;;113.27;3.13;;;19.80;50.30;;;;;;5031605;28;20247;-71
2023/08/28 02:36:04;;;;;;;113.57;3.37;;;19.60;51.20;;;;;;5031144;28;20207;-71
2023/08/28 02:38:30;;;;;;;113.50;3.30;;;19.60;51.60;;;;;;5031568;28;20178;-71
2023/08/28 02:41:04;;;;;;;113.40;3.47;;;19.70;50.20;;;;;;5031374;28;20174;-71
2023/08/28 02:43:30;;;;;;;113.67;3.50;;;19.90;49.70;;;;;;5031062;28;20499;-71
2023/08/28 02:45:55;;;;;;;113.10;2.87;;;19.80;50.30;;;;;;5026110;28;20428;-71
2023/08/28 02:48:21;;;;;;;113.57;3.47;;;19.80;50.50;;;;;;5027841;28;20268;-71
2023/08/28 02:50:49;;;;;;;113.10;3.13;;;19.70;51.00;;;;;;5028957;28;20238;-70
2023/08/28 02:53:15;;;;;;;113.53;3.37;;;20.10;50.40;;;;;;5031172;28;20174;-71
2023/08/28 02:55:41;;;;;;;113.37;3.17;;;19.90;50.80;;;;;;5030962;28;20443;-71
2023/08/28 02:58:07;;;;;;;113.77;3.50;;;19.70;51.50;;;;;;5031203;28;20191;-70
2023/08/28 03:00:34;;;;;;;113.00;2.90;;;20.10;50.90;;;;;;5031590;28;20434;-71
2023/08/28 03:03:00;;;;;;;113.10;2.90;;;19.70;50.80;;;;;;5030939;28;20484;-71
2023/08/28 03:05:26;;;;;;;113.87;3.70;;;19.70;50.80;;;;;;5035114;28;20424;-71
2023/08/28 03:07:52;;;;;;;113.20;3.20;;;19.60;50.80;;;;;;5030548;28;20450;-71
2023/08/28 03:10:17;;;;;;;114.20;3.97;;;19.90;49.60;;;;;;5031301;28;20503;-71
2023/08/28 03:12:43;;;;;;;113.67;3.47;;;19.90;48.00;;;;;;5035246;28;20177;-71
2023/08/28 03:15:09;;;;;;;113.67;3.63;;;20.00;47.70;;;;;;5030675;28;20176;-71
2023/08/28 03:17:34;;;;;;;113.50;3.30;;;20.10;48.20;;;;;;5027862;28;20207;-70
2023/08/28 03:20:00;;;;;;;113.77;3.40;;;20.10;47.80;;;;;;5035004;28;20588;-71
2023/08/28 03:22:25;;;;;;;113.57;3.63;;;20.20;47.50;;;;;;5031231;28;20200;-71
2023/08/28 03:24:52;;;;;;;113.70;3.57;;;20.00;48.70;;;;;;5034266;28;20252;-71
2023/08/28 03:27:19;;;;;;;113.27;3.00;;;19.80;50.20;;;;;;5034833;28;20346;-71
2023/08/28 03:29:44;;;;;;;113.10;3.00;;;19.80;50.70;;;;;;5035021;28;20765;-71
2023/08/28 03:32:10;;;;;;;113.40;3.40;;;19.70;50.80;;;;;;5034501;28;20430;-71
2023/08/28 03:34:36;;;;;;;113.40;3.20;;;19.60;51.30;;;;;;5034691;28;20256;-71
2023/08/28 03:37:01;;;;;;;113.20;3.20;;;19.50;52.30;;;;;;5034585;28;20201;-71
2023/08/28 03:39:27;;;;;;;113.37;3.43;;;19.60;51.00;;;;;;5034583;28;20251;-71
2023/08/28 03:41:52;;;;;;;113.53;3.63;;;19.80;49.40;;;;;;5034608;28;20176;-71
2023/08/28 03:44:18;;;;;;;113.03;2.90;;;20.00;50.20;;;;;;5034503;28;20538;-71
2023/08/28 03:46:43;;;;;;;113.30;3.10;;;20.00;49.70;;;;;;5033903;28;20604;-71
2023/08/28 03:49:09;;;;;;;114.20;3.27;;;19.90;51.40;;;;;;5034503;28;20178;-71
2023/08/28 03:51:34;;;;;;;113.40;3.23;;;19.70;51.20;;;;;;5033513;28;20536;-71
2023/08/28 03:54:01;;;;;;;113.47;3.30;;;19.60;51.10;;;;;;5032592;28;20609;-70
2023/08/28 03:56:29;;;;;;;113.40;3.23;;;19.90;51.30;;;;;;5034040;28;20680;-71
2023/08/28 03:58:55;;;;;;;113.20;3.20;;;19.60;51.10;;;;;;5034486;28;20913;-71
2023/08/28 04:01:21;;;;;;;113.30;3.00;;;19.70;52.30;;;;;;5034258;28;20442;-71
2023/08/28 04:03:47;;;;;;;113.47;3.30;;;19.70;51.20;;;;;;5034483;28;20483;-70
2023/08/28 04:06:12;;;;;;;113.40;3.13;;;19.60;50.80;;;;;;5033871;28;20191;-71
2023/08/28 04:08:38;;;;;;;113.47;3.23;;;19.50;52.10;;;;;;5034334;28;20415;-71
2023/08/28 04:11:04;;;;;;;114.47;3.90;;;19.70;51.30;;;;;;5033088;28;20255;-71
2023/08/28 04:13:29;;;;;;;113.20;2.90;;;19.50;51.60;;;;;;5034303;28;20175;-71
2023/08/28 04:15:56;;;;;;;113.30;3.00;;;19.50;51.80;;;;;;5033821;28;20255;-71
2023/08/28 04:18:21;;;;;;;113.57;3.30;;;19.70;51.00;;;;;;5033916;28;20204;-71
2023/08/28 04:20:47;;;;;;;113.50;3.00;;;19.60;51.20;;;;;;5031935;28;20463;-71
2023/08/28 04:23:13;;;;;;;113.93;3.50;;;19.50;51.20;;;;;;5033637;28;20204;-71
2023/08/28 04:25:38;;;;;;;113.30;3.30;;;19.70;52.30;;;;;;5014012;28;20219;-71
2023/08/28 04:28:04;;;;;;;113.63;3.47;;;19.50;51.70;;;;;;5018684;28;20520;-71
2023/08/28 04:30:30;;;;;;;113.90;3.70;;;19.60;52.00;;;;;;5033898;28;20177;-71
2023/08/28 04:32:55;;;;;;;113.37;3.07;;;19.60;51.70;;;;;;5033734;28;20579;-70
2023/08/28 04:35:21;;;;;;;113.40;3.10;;;19.70;52.60;;;;;;5033460;28;20199;-71
2023/08/28 04:37:46;;;;;;;118.30;3.30;;;19.70;51.50;;;;;;5033400;28;20197;-70
2023/08/28 04:40:12;;;;;;;113.57;3.60;;;19.90;49.60;;;;;;5033650;28;20213;-71
2023/08/28 04:42:38;;;;;;;113.37;3.17;;;19.80;50.30;;;;;;5033550;28;20193;-71
2023/08/28 04:45:04;;;;;;;113.00;3.03;;;19.80;50.20;;;;;;5033364;28;20171;-71
2023/08/28 04:47:29;;;;;;;113.20;3.00;;;19.90;49.10;;;;;;5033105;28;20222;-71
2023/08/28 04:49:55;;;;;;;113.47;3.40;;;20.10;47.80;;;;;;5033644;28;20400;-70
2023/08/28 04:52:22;;;;;;;113.70;3.50;;;19.50;49.70;;;;;;5026522;28;20847;-70
2023/08/28 04:54:48;;;;;;;217.50;4.20;;;18.70;54.80;;;;;;5031907;28;20228;-70
2023/08/28 04:57:13;;;;;;;113.57;3.40;;;18.70;59.30;;;;;;5018153;28;20448;-71
2023/08/28 04:59:39;;;;;;;113.67;3.27;;;19.00;57.90;;;;;;5013706;28;20416;-71
2023/08/28 05:02:05;;;;;;;113.37;3.03;;;18.80;55.00;;;;;;5015142;28;20185;-71
2023/08/28 05:04:31;;;;;;;113.27;3.30;;;18.80;53.00;;;;;;5033178;28;20196;-70
2023/08/28 05:06:57;;;;;;;113.70;3.40;;;18.60;55.50;;;;;;5032976;28;20382;-70
2023/08/28 05:09:22;;;;;;;113.30;3.00;;;19.50;53.20;;;;;;5033176;28;20415;-71
2023/08/28 05:11:48;;;;;;;113.50;3.30;;;19.80;51.90;;;;;;5033157;28;20180;-71
2023/08/28 05:14:13;;;;;;;113.57;3.30;;;19.50;50.30;;;;;;5015112;28;20175;-71
2023/08/28 05:16:39;;;;;;;113.47;3.20;;;19.50;52.00;;;;;;5032822;28;20197;-71
2023/08/28 05:19:05;;;;;;;113.60;3.43;;;19.50;52.20;;;;;;5033264;28;20259;-70
2023/08/28 05:21:32;;;;;;;113.57;3.33;;;19.80;52.50;;;;;;5032888;28;20232;-71
2023/08/28 05:23:58;;;;;;;112.87;3.00;;;19.90;51.80;;;;;;5032486;28;20830;-71
2023/08/28 05:26:23;;;;;;;114.07;3.70;;;19.70;51.10;;;;;;5032670;28;20452;-70
2023/08/28 05:28:49;;;;;;;113.27;2.90;;;19.70;50.00;;;;;;5032845;28;20223;-71
2023/08/28 05:31:15;;;;;;;113.20;3.00;;;19.80;49.00;;;;;;5032755;28;20176;-71
2023/08/28 05:33:40;;;;;;;113.40;3.27;;;19.70;49.60;;;;;;5032635;28;20527;-71
2023/08/28 05:36:06;;;;;;;113.77;3.30;;;19.90;48.10;;;;;;5032204;28;20228;-71
2023/08/28 05:38:31;;;;;;;113.50;3.23;;;20.00;46.50;;;;;;5045541;22;20758;-77
2023/08/28 05:40:57;;;;;;;113.47;3.23;;;20.00;46.50;;;;;;5013342;28;20181;-76
2023/08/28 05:43:23;;;;;;;113.87;3.33;;;20.10;46.30;;;;;;5000509;28;20240;-77
2023/08/28 05:45:48;;;;;;;113.30;3.13;;;20.10;46.40;;;;;;5013746;28;20176;-76
2023/08/28 05:48:14;;;;;;;113.87;3.47;;;20.20;46.80;;;;;;5022958;28;20436;-77
2023/08/28 05:50:43;;;;;;;113.40;3.17;;;20.00;48.70;;;;;;4996354;28;20184;-77
2023/08/28 05:53:09;;;;;;;113.60;3.50;;;19.90;48.90;;;;;;5013601;28;20262;-77
2023/08/28 05:55:34;;;;;;;113.20;3.10;;;19.70;50.00;;;;;;5013384;28;20416;-76
2023/08/28 05:58:00;;;;;;;113.97;3.83;;;19.50;50.80;;;;;;5013538;28;20678;-76
2023/08/28 06:00:26;;;;;;;113.67;3.33;;;19.40;51.00;;;;;;5016893;28;20171;-77
2023/08/28 06:02:51;;;;;;;113.90;3.73;;;19.20;52.70;;;;;;5013399;28;20695;-77
2023/08/28 06:05:17;;;;;;;113.90;3.70;;;19.60;54.40;;;;;;5012615;28;20416;-77
2023/08/28 06:07:44;;;;;;;113.47;3.43;;;;;;;;;;5013547;28;20177;-76
2023/08/28 06:10:12;;;;;;;113.53;3.40;;;18.80;56.20;;;;;;5013292;28;20922;-76
2023/08/28 06:12:38;;;;;;;113.70;3.33;;;18.80;56.20;;;;;;5012860;28;20486;-77
2023/08/28 06:15:04;;;;;;;113.60;3.40;;;18.40;59.00;;;;;;5012563;28;20424;-77
2023/08/28 06:17:30;;;;;;;113.40;3.40;;;18.20;61.40;;;;;;5013123;28;20184;-76
2023/08/28 06:19:56;;;;;;;113.57;3.67;;;18.10;61.50;;;;;;4995433;28;20437;-76
2023/08/28 06:22:21;;;;;;;112.90;3.00;;;18.40;60.70;;;;;;4994977;28;20223;-77
2023/08/28 06:24:52;;;;;;;113.37;3.43;;;18.10;61.90;;;;;;5012219;28;20780;-76
2023/08/28 06:27:18;;;;;;;114.07;3.83;;;18.30;62.50;;;;;;5012187;28;20173;-76
2023/08/28 06:29:43;;;;;;;113.47;3.50;;;18.40;62.20;;;;;;5012258;28;20487;-76
2023/08/28 06:32:09;;;;;;;113.10;3.10;;;18.40;62.40;;;;;;5009383;28;20424;-76
2023/08/28 06:34:34;;;;;;;114.57;4.53;;;18.80;61.00;;;;;;5009470;28;20609;-76
2023/08/28 06:37:00;;;;;;;113.63;3.57;;;19.30;57.90;;;;;;5005731;28;20189;-76
2023/08/28 06:39:26;;;;;;;113.47;3.50;;;19.50;56.80;;;;;;5004302;28;20245;-76
2023/08/28 06:41:51;;;;;;;114.37;3.60;;;19.70;54.50;;;;;;5012713;28;20169;-76
2023/08/28 06:44:17;;;;;;;114.80;3.63;;;20.00;54.10;;;;;;5012478;28;20204;-76
2023/08/28 06:46:42;;;;;;;113.50;3.27;;;20.00;52.60;;;;;;5012149;28;20177;-77
2023/08/28 06:49:08;;;;;;;114.37;4.33;;;20.10;53.30;;;;;;5012776;28;20198;-77
2023/08/28 06:51:33;;;;;;;113.70;3.70;;;20.20;52.20;;;;;;5012935;28;20203;-76
2023/08/28 06:54:00;;;;;;;113.07;3.10;;;20.00;52.30;;;;;;5013369;28;20177;-77
2023/08/28 06:56:25;;;;;;;113.87;3.97;;;20.00;51.70;;;;;;4992556;28;20658;-77
2023/08/28 06:58:51;;;;;;;113.57;3.57;;;19.90;53.10;;;;;;4992500;28;20676;-77
2023/08/28 07:01:16;;;;;;;113.93;3.67;;;20.20;53.50;;;;;;5005261;28;20555;-77
2023/08/28 07:03:42;;;;;;;113.50;3.50;;;20.10;51.10;;;;;;5004235;28;20695;-76
2023/08/28 07:06:07;;;;;;;114.80;3.50;;;19.90;51.90;;;;;;5006184;28;20174;-77
2023/08/28 07:08:33;;;;;;;113.30;3.30;;;20.10;52.00;;;;;;5012224;28;20189;-77
2023/08/28 07:10:58;;;;;;;113.47;3.33;;;20.10;50.40;;;;;;5010936;28;20658;-77
2023/08/28 07:13:24;;;;;;;114.33;3.73;;;20.20;51.20;;;;;;5009785;28;20189;-78
2023/08/28 07:15:50;;;;;;;112.97;3.17;;;20.10;50.70;;;;;;5005264;28;20177;-77
2023/08/28 07:18:16;;;;;;;113.37;3.53;;;20.00;51.70;;;;;;5009215;28;20580;-76
2023/08/28 07:20:43;;;;;;;113.17;3.40;;;19.90;51.30;;;;;;5008819;28;20525;-77
2023/08/28 07:23:09;;;;;;;113.27;3.33;;;19.90;50.10;;;;;;5012494;28;20465;-77
2023/08/28 07:25:34;;;;;;;114.00;3.97;;;19.30;52.20;;;;;;5003536;28;21098;-77
2023/08/28 07:28:00;;;;;;;114.07;3.93;;;19.70;51.60;;;;;;5007791;28;20776;-75
2023/08/28 07:30:25;;;;;;;112.97;3.10;;;20.30;52.60;;;;;;5010844;28;20188;-75
2023/08/28 07:32:51;;;;;;;112.80;3.00;;;19.80;51.10;;;;;;5009835;28;20272;-76
2023/08/28 07:35:16;;;;;;;113.67;3.60;;;19.90;51.90;;;;;;5004468;28;20683;-75
2023/08/28 07:37:42;;;;;;;113.97;3.90;;;20.00;51.60;;;;;;5008308;28;20684;-75
2023/08/28 07:40:08;;;;;;;115.17;3.93;;;20.00;50.50;;;;;;5001743;28;20201;-75
2023/08/28 07:42:35;;;;;;;113.63;3.73;;;20.10;51.90;;;;;;5002130;28;20203;-75
2023/08/28 07:45:01;;;;;;;113.37;3.60;;;20.10;52.30;;;;;;5011092;28;20907;-76
2023/08/28 07:47:27;;;;;;;113.50;3.57;;;20.30;51.70;;;;;;5015137;28;20420;-75
2023/08/28 07:49:54;;;;;;;113.27;3.33;;;20.00;50.30;;;;;;5014989;28;20428;-75
2023/08/28 07:52:20;;;;;;;113.10;3.23;;;19.70;51.80;;;;;;5014937;28;20445;-75
2023/08/28 07:54:46;;;;;;;113.80;3.70;;;19.90;51.00;;;;;;5014651;28;20418;-75
2023/08/28 07:57:12;;;;;;;123.40;4.83;;;19.40;54.30;;;;;;5014763;28;20648;-74
2023/08/28 07:59:38;;;;;;;113.17;3.20;;;18.50;60.40;;;;;;5014674;28;20472;-75
2023/08/28 08:02:04;;;;;;;114.57;3.73;;;18.90;60.00;;;;;;5014601;28;20177;-74
2023/08/28 08:04:31;;;;;;;113.50;3.60;;;18.90;57.40;;;;;;5014945;28;20926;-76
2023/08/28 08:06:56;;;;;;;113.77;3.70;;;19.20;57.10;;;;;;5014804;28;20619;-75
2023/08/28 08:09:22;;;;;;;113.47;3.33;;;19.70;53.80;;;;;;5014690;28;20428;-75
2023/08/28 08:11:48;;;;;;;113.23;3.53;;;19.50;55.20;;;;;;5014857;28;20665;-75
2023/08/28 08:14:14;;;;;;;113.37;3.47;;;19.50;55.70;;;;;;5014438;28;20415;-76
2023/08/28 08:16:39;;;;;;;113.50;3.60;;;19.90;54.10;;;;;;5015326;28;20202;-75
2023/08/28 08:19:05;;;;;;;113.50;3.50;;;20.30;51.90;;;;;;5016085;28;20724;-77
2023/08/28 08:21:30;;;;;;;113.37;3.53;;;20.00;51.70;;;;;;5015499;28;20261;-76
2023/08/28 08:23:56;;;;;;;113.67;3.73;;;20.10;52.70;;;;;;5014437;28;20205;-75
2023/08/28 08:26:22;;;;;;;114.60;4.20;;;20.10;51.90;;;;;;5014537;28;20633;-75
2023/08/28 08:28:48;;;;;;;113.53;3.70;;;20.40;51.30;;;;;;5014284;28;20555;-75
2023/08/28 08:31:13;;;;;;;112.90;3.20;;;20.30;50.80;;;;;;5014182;28;20184;-75
2023/08/28 08:33:39;;;;;;;113.00;3.33;;;20.50;50.40;;;;;;5014346;28;20402;-75
2023/08/28 08:36:05;;;;;;;113.07;3.23;;;19.80;51.00;;;;;;5013785;28;20178;-75
2023/08/28 08:38:31;;;;;;;113.87;4.10;;;20.00;51.30;;;;;;5013695;28;20218;-77
2023/08/28 08:40:58;;;;;;;113.37;3.60;;;20.40;48.90;;;;;;5014147;28;20418;-75
2023/08/28 08:43:27;;;;;;;113.60;3.43;;;20.40;50.30;;;;;;5013924;28;20198;-75
2023/08/28 08:46:00;;;;;;;112.97;3.37;;;19.70;51.50;;;;;;5013696;28;20409;-75
2023/08/28 08:48:27;;;;;;;113.47;3.67;;;19.90;53.90;;;;;;5013982;28;20505;-75
2023/08/28 08:51:01;;;;;;;113.70;3.60;;;20.20;51.60;;;;;;4996218;28;20407;-75
2023/08/28 08:53:51;;;;;;;113.17;3.50;;;20.10;49.30;;;;;;5013913;28;20446;-75
2023/08/28 08:56:23;;;;;;;113.07;3.50;;;20.10;50.70;;;;;;5013389;28;20570;-75
2023/08/28 08:58:49;;;;;;;112.97;3.27;;;20.40;50.90;;;;;;5013110;28;20437;-75
2023/08/28 09:01:15;;;;;;;113.30;3.43;;;20.50;50.00;;;;;;5013439;28;20862;-76
2023/08/28 09:03:43;;;;;;;113.20;3.60;;;21.00;49.40;;;;;;5013638;28;20539;-75
2023/08/28 09:06:09;;;;;;;113.40;3.60;;;20.90;48.80;;;;;;5013180;28;20179;-75
2023/08/28 09:08:36;;;;;;;113.00;3.53;;;20.80;48.50;;;;;;5013102;28;20435;-75
2023/08/28 09:11:04;;;;;;;113.00;3.27;;;20.80;48.20;;;;;;5013412;28;20902;-75
2023/08/28 09:13:30;;;;;;;113.40;3.77;;;20.90;47.60;;;;;;4995772;28;20437;-75
2023/08/28 09:15:56;;;;;;;113.27;3.33;;;20.90;47.40;;;;;;5013021;28;20939;-75
2023/08/28 09:18:25;;;;;;;113.93;3.90;;;20.90;47.60;;;;;;5013220;28;20492;-75
2023/08/28 09:21:09;;;;;;;112.93;3.27;;;20.90;45.70;;;;;;5013140;28;20175;-75
2023/08/28 09:23:40;;;;;;;113.90;3.70;;;20.80;48.10;;;;;;5013160;28;20952;-75
2023/08/28 09:26:05;;;;;;;112.97;3.30;;;20.80;48.20;;;;;;5012725;28;20422;-75
2023/08/28 09:28:31;;;;;;;113.03;3.57;;;20.60;48.60;;;;;;5013072;28;20438;-75
2023/08/28 09:30:57;;;;;;;112.70;3.10;;;20.80;47.40;;;;;;5013117;28;20788;-75
2023/08/28 09:33:22;;;;;;;114.60;3.60;;;21.10;47.50;;;;;;5012913;28;20249;-75
2023/08/28 09:35:48;;;;;;;112.77;3.30;;;20.80;47.80;;;;;;5012773;28;20228;-75
2023/08/28 09:38:14;;;;;;;114.30;3.87;;;21.20;46.10;;;;;;5012427;28;20286;-75
2023/08/28 09:40:41;;;;;;;112.53;2.87;;;20.60;49.00;;;;;;5012821;28;20418;-75
2023/08/28 09:43:14;;;;;;;112.97;3.40;;;20.80;50.10;;;;;;4995091;28;20201;-75
2023/08/28 09:45:40;;;;;;;114.63;3.77;;;21.10;48.90;;;;;;5012646;28;20417;-75
2023/08/28 09:48:07;;;;;;;112.70;3.43;;;21.50;48.40;;;;;;5012490;28;20513;-75
2023/08/28 09:50:34;;;;;;;112.63;3.33;;;21.60;46.50;;;;;;5012745;28;20753;-75
2023/08/28 09:53:09;;;;;;;112.80;3.50;;;21.70;47.30;;;;;;5012596;28;20491;-77
2023/08/28 09:55:52;;;;;;;112.57;3.23;;;21.40;45.50;;;;;;5012432;28;20421;-75
2023/08/28 09:58:19;;;;;;;112.80;3.50;;;21.30;44.30;;;;;;5012398;28;20432;-75
2023/08/28 10:00:45;;;;;;;112.57;3.17;;;21.10;44.40;;;;;;5012505;28;20408;-75
2023/08/28 10:03:12;;;;;;;112.50;3.30;;;21.20;46.50;;;;;;5012455;28;20806;-75
2023/08/28 10:05:40;;;;;;;112.30;3.33;;;21.30;45.80;;;;;;5012267;28;20439;-75
2023/08/28 10:08:08;;;;;;;112.30;3.20;;;21.30;46.60;;;;;;5012156;28;20698;-75
2023/08/28 10:10:35;;;;;;;112.03;3.00;;;21.40;44.80;;;;;;5011873;28;20411;-75
2023/08/28 10:13:03;;;;;;;117.07;3.70;;;21.10;44.30;;;;;;5012150;28;20949;-77
2023/08/28 10:15:31;;;;;;;112.80;3.67;;;21.00;45.30;;;;;;5011988;28;20426;-75
2023/08/28 10:18:03;;;;;;;112.20;3.30;;;21.50;42.50;;;;;;5012169;28;20409;-76
2023/08/28 10:20:30;;;;;;;112.33;3.47;;;21.50;43.10;;;;;;5012199;28;20436;-75
2023/08/28 10:22:57;;;;;;;114.27;4.23;;;21.80;44.00;;;;;;5012408;28;20444;-74
2023/08/28 10:25:25;;;;;;;112.07;3.37;;;21.40;42.50;;;;;;5011818;28;20406;-76
2023/08/28 10:27:52;;;;;;;112.37;3.57;;;21.00;44.60;;;;;;5011992;28;20790;-75
2023/08/28 10:30:21;;;;;;;112.10;3.43;;;21.20;44.90;;;;;;5012004;28;20974;-75
2023/08/28 10:32:47;;;;;;;115.70;3.50;;;21.20;43.90;;;;;;5012108;28;20917;-75
2023/08/28 10:35:14;;;;;;;111.77;3.13;;;20.90;42.90;;;;;;5011623;28;20458;-77
2023/08/28 10:37:41;;;;;;;111.90;3.20;;;20.80;44.20;;;;;;5012066;28;20660;-75
2023/08/28 10:40:09;;;;;;;111.87;3.20;;;20.90;43.20;;;;;;5011389;28;20451;-75
2023/08/28 10:42:36;;;;;;;111.97;3.33;;;20.80;43.70;;;;;;5012028;28;20556;-77
2023/08/28 10:45:02;;;;;;;111.97;3.50;;;20.70;43.00;;;;;;5011750;28;20427;-75
2023/08/28 10:47:27;;;;;;;111.40;3.10;;;21.10;43.40;;;;;;5012470;28;20883;-75
2023/08/28 10:49:57;;;;;;;111.70;3.30;;;21.30;43.40;;;;;;5011875;28;20189;-75
2023/08/28 10:52:23;;;;;;;111.57;3.27;;;21.20;42.30;;;;;;5011712;28;20177;-75
2023/08/28 10:54:50;;;;;;;111.77;3.47;;;21.10;42.70;;;;;;5011397;28;20413;-75
2023/08/28 10:57:24;;;;;;;112.37;3.40;;;20.80;43.80;;;;;;5011597;28;20488;-75
2023/08/28 10:59:49;;;;;;;112.77;3.80;;;20.90;44.00;;;;;;5011610;28;20453;-77
2023/08/28 11:02:16;;;;;;;111.70;3.60;;;21.00;43.40;;;;;;5011448;28;20786;-75
2023/08/28 11:04:42;;;;;;;111.10;2.90;;;21.20;43.70;;;;;;5011465;28;20168;-77
2023/08/28 11:07:33;;;;;;;111.27;3.17;;;21.10;40.90;;;;;;5011463;28;20960;-75
2023/08/28 11:10:20;;;;;;;111.37;3.17;;;21.00;43.30;;;;;;4950449;29;20220;-75
2023/08/28 11:12:56;;;;;;;111.00;3.00;;;20.90;43.30;;;;;;4951094;29;20422;-75
2023/08/28 11:15:27;;;;;;;111.57;3.37;;;21.10;42.70;;;;;;4950682;29;20786;-75
2023/08/28 11:18:26;;;;;;;111.27;3.13;;;21.20;41.90;;;;;;4951015;29;20765;-75
2023/08/28 11:21:02;;;;;;;111.17;3.30;;;21.20;42.80;;;;;;4952748;28;20997;-75
2023/08/28 11:23:36;;;;;;;111.37;3.23;;;21.20;41.40;;;;;;4954793;29;20469;-75
2023/08/28 11:26:22;;;;;;;111.60;3.40;;;21.30;41.90;;;;;;4954449;29;20423;-75
2023/08/28 11:28:50;;;;;;;111.40;3.57;;;21.20;41.90;;;;;;4944831;29;20509;-74
2023/08/28 11:31:17;;;;;;;111.20;3.20;;;20.70;41.20;;;;;;4954642;29;20853;-75
2023/08/28 11:33:51;;;;;;;129.73;3.47;;;20.70;44.30;;;;;;4954665;29;20495;-75
2023/08/28 11:36:21;;;;;;;111.07;3.10;;;20.80;42.40;;;;;;4954128;29;20455;-75
2023/08/28 11:38:47;;;;;;;111.33;3.47;;;21.00;43.30;;;;;;4954072;29;20804;-76
2023/08/28 11:41:14;;;;;;;110.80;3.00;;;21.10;41.00;;;;;;4954343;29;20421;-75
2023/08/28 11:43:42;;;;;;;111.27;3.40;;;21.10;40.90;;;;;;4954516;29;20923;-74
2023/08/28 11:46:09;;;;;;;113.40;3.80;;;19.90;42.00;;;;;;4967900;28;20418;-75
2023/08/28 11:48:39;;;;;;;111.43;3.57;;;19.10;44.70;;;;;;5014870;28;20457;-75
2023/08/28 11:51:08;;;;;;;113.97;4.00;;;19.70;46.90;;;;;;5014740;28;20416;-76
2023/08/28 11:53:40;;;;;;;111.37;3.43;;;19.40;46.30;;;;;;5015007;28;20886;-74
2023/08/28 11:56:11;;;;;;;112.50;3.77;;;19.10;49.40;;;;;;5014597;28;20418;-75
2023/08/28 11:58:39;;;;;;;111.07;3.10;;;19.30;53.30;;;;;;4997318;28;20442;-76
2023/08/28 12:01:08;;;;;;;111.43;3.23;;;19.90;53.20;;;;;;5015129;28;20422;-74
2023/08/28 12:03:37;;;;;;;111.47;3.50;;;19.40;53.30;;;;;;5014684;28;20680;-74
2023/08/28 12:06:07;;;;;;;111.10;3.00;;;18.00;58.30;;;;;;5014319;28;20787;-75
2023/08/28 12:08:35;;;;;;;111.83;3.60;;;17.90;61.40;;;;;;5014557;28;20524;-75
2023/08/28 12:11:03;;;;;;;111.40;3.10;;;18.40;61.80;;;;;;5014528;28;20420;-75
2023/08/28 12:13:30;;;;;;;111.60;3.63;;;18.30;58.20;;;;;;5014577;28;20408;-74
2023/08/28 12:16:15;;;;;;;111.67;3.17;;;18.40;61.00;;;;;;5014114;28;20935;-75
2023/08/28 12:18:51;;;;;;;111.87;3.40;;;18.50;58.50;;;;;;5014555;28;20440;-74
2023/08/28 12:21:19;;;;;;;111.27;3.03;;;18.50;58.20;;;;;;5014627;28;20420;-73
2023/08/28 12:23:46;;;;;;;112.00;3.63;;;18.30;59.70;;;;;;5014347;28;20486;-74
2023/08/28 12:26:12;;;;;;;111.00;3.10;;;18.30;60.50;;;;;;5013979;28;20405;-75
2023/08/28 12:28:37;;;;;;;111.17;3.30;;;18.60;62.80;;;;;;5014263;28;20443;-76